ADDS METAR Data INFO
IDs: Format: Raw Decoded Include TAF

Data at: 2023 UTC 16 Dec 2017

PAJN 161953Z 12015KT 4SM -RA BR FEW008 FEW012 OVC024 04/03 A2946 RMK AO2 PK WND 12028/1926 SLP977 P0010 T00390033 $
PAJN 161853Z 11022G30KT 3SM -RA BR FEW009 OVC019 04/03 A2946 RMK AO2 PK WND 11034/1756 SLP977 P0004 T00390033 $
PAJN 161753Z 11024G32KT 4SM -RA BR FEW008 OVC020 04/03 A2948 RMK AO2 PK WND 11034/1730 SLP982 P0008 60035 T00390028 10039 20017 56023 $
PAJN 161653Z 11023G33KT 4SM -RA BR FEW016 OVC021 04/03 A2949 RMK AO2 PK WND 11036/1614 SLP984 P0007 T00390028 $
PAJN 161553Z 11022G32KT 5SM -RA BR FEW004 BKN023 OVC040 04/03 A2952 RMK AO2 PK WND 11032/1550 SLP995 P0002 T00390028 $
PAJN 161453Z 13021G24KT 6SM -RA BR FEW004 BKN024 OVC031 03/02 A2955 RMK AO2 PK WND 12028/1437 SLP005 P0002 60018 T00330022 56041 $
PAJN 161353Z 12018G24KT 7SM -RA FEW004 BKN020 OVC030 02/02 A2958 RMK AO2 PK WND 13026/1334 SNB1257E04 PRESFR SLP017 P0007 T00220017 $
PAJN 161253Z 11019G27KT 4SM RA BR FEW006 BKN020 OVC031 02/02 A2963 RMK AO2 PK WND 12032/1219 SLP033 P0009 T00220017 $
PAJN 161231Z 12024G32KT 5SM -RA BR FEW006 BKN022 OVC031 03/02 A2964 RMK AO2 PK WND 12032/1219 P0003 T00280017 $
PAJN 161153Z 12023G32KT 4SM RA BR FEW005 BKN018 OVC030 03/02 A2967 RMK AO2 PK WND 12035/1143 PRESFR SLP046 P0010 60024 70033 T00330022 10044 20033 58046 $
PAJN 161142Z 11024G33KT 4SM RA BR FEW005 BKN018 OVC030 03/03 A2968 RMK AO2 PK WND 11034/1110 PRESFR P0008 T00330028 $
PAJN 161053Z 12020G30KT 5SM RA BR FEW005 BKN024 OVC034 04/03 A2973 RMK AO2 PK WND 13036/1035 SLP067 P0008 T00390028
PAJN 160953Z 12022G28KT 5SM -RA BR FEW005 BKN024 OVC032 04/02 A2975 RMK AO2 PK WND 11029/0900 SNB0855E0858PLB0858E05 SLP073 P0003 T00390022
PAJN 160911Z 12020G28KT 6SM -RA BR FEW005 BKN024 OVC032 04/02 A2978 RMK AO2 PK WND 11029/0900 SNB0855E0858PLB0858E05 P0002 T00390022
PAJN 160858Z 10020G27KT 5SM -RAPL FEW005 BKN026 OVC032 04/02 A2980 RMK AO2 PK WND 11027/0856 SNB55E58PLB58 PRESFR P0000 T00390022
PAJN 160853Z 12020G25KT 7SM -RA FEW005 BKN030 OVC040 04/03 A2980 RMK AO2 PK WND 10029/0837 PRESFR SLP092 P0003 60003 T00390028 400440028 58041
PAJN 160753Z 12017G23KT 9SM -RA FEW006 BKN030 OVC039 04/03 A2985 RMK AO2 SLP107 P0000 T00390028
PAJN 160653Z 11014KT 10SM -RA FEW006 BKN030 OVC039 04/02 A2989 RMK AO2 RAB0556 SLP121 P0000 T00390022
PAJN 160553Z 12014KT 10SM FEW006 BKN030 OVC040 04/03 A2992 RMK AO2 RAE09B38E53 SLP133 P0000 60001 T00390028 10039 20028 58021
PAJN 160519Z 11013KT 10SM FEW006 BKN031 OVC040 03/03 A2994 RMK AO2 RAE09 P0000 T00330028
PAJN 160453Z 11014KT 7SM -RA FEW006 BKN026 OVC033 03/03 A2995 RMK AO2 SLP142 P0000 T00330028
PAJN 160400Z 08011KT 7SM -RA FEW004 BKN021 OVC035 03/03 A2997 RMK AO2 P0000 T00330033
PAJN 160353Z 10010KT 6SM -RA BR FEW004 SCT012 OVC030 03/03 A2998 RMK AO2 RAB40 SLP151 P0000 T00330033
PAJN 160253Z 09009KT 10SM FEW008 SCT026 BKN080 03/03 A2999 RMK AO2 SLP154 60001 T00330028 58013
PAJN 160153Z 08009KT 10SM FEW007 BKN031 OVC048 03/03 A3001 RMK AO2 SLP161 T00330033
PAJN 160053Z 10005KT 10SM FEW007 BKN038 OVC065 03/03 A3001 RMK AO2 RAE08 SLP162 P0001 T00330033
PAJN 152353Z 06004KT 7SM -RA FEW007 BKN039 OVC080 04/04 A3003 RMK AO2 RAB45 SLP167 P0000 60000 T00390039 10044 20033 51015
PAJN 152253Z 09004KT 10SM FEW006 BKN038 OVC060 04/03 A3001 RMK AO2 SLP161 T00390033
PAJN 152153Z 09006KT 10SM FEW009 BKN034 OVC060 04/03 A3000 RMK AO2 SLP159 T00440033
PAJN 152053Z 08007KT 10SM FEW007 SCT037 BKN070 04/03 A2998 RMK AO2 SLP152 T00440033 50009
PAJN 151953Z 00000KT 10SM SCT008 BKN036 OVC070 03/03 A2998 RMK AO2 SLP152 T00330033
PAJN 151853Z VRB04KT 10SM FEW007 BKN044 OVC065 04/03 A2997 RMK AO2 SLP148 T00390028
PAJN 151753Z 09007KT 10SM FEW011 BKN034 OVC042 03/03 A2995 RMK AO2 RAB14E32 SLP143 P0001 60008 T00330028 10044 20033 53007
PAJN 151653Z 00000KT 10SM FEW010 BKN038 OVC050 03/03 A2994 RMK AO2 RAE33 SLP138 P0002 T00330033
PAJN 151553Z 11006KT 7SM -RA FEW019 BKN028 OVC040 03/03 A2993 RMK AO2 SLP136 P0004 T00330028
PAJN 151548Z 11007KT 6SM -RA BR FEW019 BKN028 OVC040 04/03 A2993 RMK AO2 P0003
PAJN 151453Z 07006KT 8SM -RA FEW019 BKN034 OVC044 04/03 A2991 RMK AO2 RAB14 SLP130 P0001 60001 T00390033 58001
PAJN 151353Z 06003KT 10SM FEW023 BKN037 OVC046 04/03 A2992 RMK AO2 SLP131 RAE13 P0000 T00390033
PAJN 151253Z 11007KT 10SM -RA FEW008 BKN032 OVC045 04/03 A2992 RMK AO2 RAB1155 SLP130 P0000 T00390033
PAJN 151153Z 07005KT 10SM FEW008 BKN033 OVC046 04/03 A2992 RMK AO2 RAE44 SLP131 P0000 60002 70036 T00440033 10050 20039 53002
PAJN 151053Z 08007KT 10SM -RA FEW011 BKN034 OVC050 04/03 A2991 RMK AO2 RAE07B51 SLP128 P0000 T00440033
PAJN 150953Z 06005KT 10SM -RA FEW016 SCT032 OVC050 04/03 A2991 RMK AO2 RAB26 SLP129 P0000 T00440033
PAJN 150853Z 10010KT 10SM FEW005 BKN037 OVC080 04/03 A2991 RMK AO2 RAB05E27 SLP128 P0000 60002 T00440033 400830044 57003